Navarre, OH (44662)

1:23 PM EDT on July 27, 2016 (GMT -0400)
GET | | Change Station

Elev 980 ft 40.63 °N, 81.53 °W | Updated 3 minutes ago

Partly Cloudy
Partly Cloudy
89.7 °F
Feels Like 93 °F
N
2.0
Wind Variable Wind from NW
Gusts 2.0 mph

Today
High -- | Low -- °F
--% Chance of Precip.
Yesterday
High -- | Low -- °F
Precip. -- in
Pressure 30.00 in
Visibility 10.0 miles
Clouds Few 5500 ft
Few 25000 ft
Heat Index 93 °F
Dew Point 67 °F
Humidity 47%
Rainfall 0.00 in
Snow Depth Not available.
6:18 AM 8:46 PM
Last Quarter, 41% visible
METAR KCAK 271651Z 36005KT 10SM FEW055 FEW250 30/13 A3003 RMK AO2 SLP159 T03000133
Pressure 30.00 in
Visibility 10.0 miles
Clouds Few 5500 ft
Few 25000 ft
Heat Index 93 °F
Dew Point 67 °F
Humidity 47%
Rainfall 0.00 in
Snow Depth Not available.
6:18 AM 8:46 PM
Last Quarter, 41% visible
METAR KCAK 271651Z 36005KT 10SM FEW055 FEW250 30/13 A3003 RMK AO2 SLP159 T03000133

10-Day Weather Forecast

Almanac

Astronomy

Jul. 27, 2016 Rise Set
Actual Time
Civil Twilight
Nautical Twilight
Astronomical Twilight
Moon
Length of Visible Light
Length of Day
Tomorrow will be .
, % of the Moon is Illuminated

Today's Extremes

State Highs State Lows

Community

WunderPhotos

Upload Photos

1,927,887 photos uploaded!

WunderBlog® & News

Nearby

Air Quality

  Air Quality AQ Index Pollutant
Not available.

Snow Depth

Station Depth Elevation

Earthquake Activity

City Distance Mag. Time & Date
Minimum magnitude displayed is 2.5.

Coastal Water Temperatures

Place Temperature

Stations

Nearby Weather Stations

Station Location Temp. Windchill Dew Point Humidity Wind Precip. Elev Updated Type
                   

Watches & Warnings

There are currently no watches in effect.